Time;durP1;ratioP1;P1;durP2;ratioP2;P2;SDS_P1;SDS_P2;PMS_P1;PMS_P2;Temp;Humidity;BMP_temperature;BMP_pressure;BME280_temperature;BME280_humidity;BME280_pressure;Samples;Min_cycle;Max_cycle;Signal;HPM_P1;HPM_P2
2021/09/15 00:00:31;;;;;;;37.28;24.73;;;16.60;99.90;;;;;;5023340;28;20049;-76
2021/09/15 00:03:01;;;;;;;40.28;25.48;;;16.60;99.90;;;;;;5061282;28;20135;-76
2021/09/15 00:05:31;;;;;;;34.75;24.70;;;16.60;99.90;;;;;;5026945;28;20134;-77
2021/09/15 00:08:03;;;;;;;38.58;25.00;;;16.70;99.90;;;;;;5034109;28;20506;-77
2021/09/15 00:10:34;;;;;;;36.58;25.30;;;16.70;99.90;;;;;;4998521;28;20171;-76
2021/09/15 00:13:01;;;;;;;42.15;26.17;;;16.70;99.90;;;;;;5039483;28;20048;-77
2021/09/15 00:15:31;;;;;;;38.22;26.33;;;16.80;99.90;;;;;;5060473;28;20056;-76
2021/09/15 00:18:04;;;;;;;37.53;25.55;;;16.70;99.90;;;;;;5056014;28;20044;-77
2021/09/15 00:20:34;;;;;;;40.47;26.38;;;16.80;99.90;;;;;;5058564;28;20059;-77
2021/09/15 00:23:08;;;;;;;37.63;26.52;;;16.80;99.90;;;;;;5068642;28;20382;-77
2021/09/15 00:25:37;;;;;;;37.75;26.23;;;16.80;99.90;;;;;;5039320;28;20045;-76
2021/09/15 00:28:07;;;;;;;37.20;25.23;;;16.80;99.90;;;;;;5059785;28;20040;-76
2021/09/15 00:30:38;;;;;;;39.08;26.10;;;16.80;99.90;;;;;;5032816;28;20392;-76
2021/09/15 00:33:05;;;;;;;40.20;26.30;;;16.80;99.90;;;;;;5040637;28;20060;-76
2021/09/15 00:35:33;;;;;;;41.33;26.23;;;16.80;99.90;;;;;;5036568;28;20049;-77
2021/09/15 00:38:07;;;;;;;37.67;26.25;;;16.80;99.90;;;;;;5065961;28;20132;-77
2021/09/15 00:40:38;;;;;;;33.72;23.23;;;16.80;99.90;;;;;;5024175;28;20386;-77
2021/09/15 00:43:08;;;;;;;26.08;20.77;;;16.80;99.90;;;;;;5049728;28;20118;-77
2021/09/15 00:45:37;;;;;;;26.90;20.40;;;16.80;99.90;;;;;;5039925;28;20487;-77
2021/09/15 00:48:12;;;;;;;23.38;17.80;;;16.80;99.90;;;;;;5030860;28;20048;-77
2021/09/15 00:50:50;;;;;;;22.67;16.98;;;16.80;99.90;;;;;;5041710;28;20364;-77
2021/09/15 00:53:20;;;;;;;20.92;15.75;;;16.80;99.90;;;;;;5044288;28;20496;-77
2021/09/15 00:55:52;;;;;;;19.27;15.63;;;16.80;99.90;;;;;;5024394;28;20049;-77
2021/09/15 00:58:31;;;;;;;21.80;15.77;;;16.90;99.90;;;;;;5052802;28;20419;-77
2021/09/15 01:01:00;;;;;;;;;;;16.80;99.90;;;;;;5061502;28;20098;-77
2021/09/15 01:03:34;;;;;;;18.48;14.82;;;16.90;99.90;;;;;;5008724;28;20368;-77
2021/09/15 01:06:03;;;;;;;19.20;14.88;;;16.90;99.90;;;;;;5072894;28;20102;-77
2021/09/15 01:08:34;;;;;;;20.58;15.60;;;16.90;99.90;;;;;;5036946;28;20076;-77
2021/09/15 01:11:04;;;;;;;17.38;14.85;;;16.90;99.90;;;;;;5038369;28;20053;-77
2021/09/15 01:13:37;;;;;;;19.58;14.45;;;16.90;99.90;;;;;;5019040;28;20045;-77
2021/09/15 01:16:08;;;;;;;17.42;13.23;;;16.80;99.90;;;;;;5046306;28;20456;-77
2021/09/15 01:18:37;;;;;;;17.00;13.73;;;16.80;99.90;;;;;;5068324;28;20057;-77
2021/09/15 01:21:13;;;;;;;16.65;14.07;;;16.80;99.90;;;;;;5073068;28;20041;-77
2021/09/15 01:23:42;;;;;;;17.63;14.23;;;16.80;99.90;;;;;;5055901;28;20106;-77
2021/09/15 01:26:12;;;;;;;21.73;16.20;;;16.80;99.90;;;;;;5051456;28;20471;-77
2021/09/15 01:28:39;;;;;;;22.42;15.45;;;16.80;99.90;;;;;;5061391;28;20052;-77
2021/09/15 01:31:09;;;;;;;21.25;15.15;;;16.80;99.90;;;;;;5038003;28;20045;-77
2021/09/15 01:33:38;;;;;;;19.60;14.90;;;16.80;99.90;;;;;;5068096;28;20052;-77
2021/09/15 01:36:06;;;;;;;19.02;14.27;;;16.70;99.90;;;;;;5062158;28;20049;-77
2021/09/15 01:38:39;;;;;;;22.20;15.45;;;16.70;99.90;;;;;;5057952;28;20048;-77
2021/09/15 01:41:33;;;;;;;20.33;15.13;;;16.70;99.90;;;;;;5051894;28;20079;-77
2021/09/15 01:44:04;;;;;;;22.17;16.52;;;16.70;99.90;;;;;;5034873;28;20046;-77
2021/09/15 01:46:35;;;;;;;23.55;16.55;;;16.60;99.90;;;;;;5037104;28;20091;-77
2021/09/15 01:49:03;;;;;;;24.33;16.98;;;16.60;99.90;;;;;;5048236;28;20053;-77
2021/09/15 01:51:30;;;;;;;22.40;17.05;;;16.60;99.90;;;;;;5051517;28;20477;-77
2021/09/15 01:54:03;;;;;;;24.17;17.40;;;16.60;99.90;;;;;;5034124;28;20040;-77
2021/09/15 01:56:31;;;;;;;24.27;17.58;;;16.60;99.90;;;;;;5034632;28;20050;-77
2021/09/15 01:59:03;;;;;;;28.40;18.65;;;16.60;99.90;;;;;;5045346;28;20052;-77
2021/09/15 02:01:30;;;;;;;22.05;17.55;;;16.60;99.90;;;;;;5047329;28;20456;-77
2021/09/15 02:03:59;;;;;;;28.35;18.45;;;16.60;99.90;;;;;;5041568;28;20098;-76
2021/09/15 02:06:26;;;;;;;24.40;17.58;;;16.60;99.90;;;;;;5040199;28;20048;-77
2021/09/15 02:08:53;;;;;;;28.40;17.85;;;16.60;99.90;;;;;;5071866;28;20055;-76
2021/09/15 02:11:24;;;;;;;22.98;17.35;;;16.50;99.90;;;;;;5047988;28;20060;-77
2021/09/15 02:13:51;;;;;;;25.98;18.50;;;16.60;99.90;;;;;;5066417;28;20397;-77
2021/09/15 02:16:19;;;;;;;27.35;18.73;;;16.60;99.90;;;;;;5055035;28;20040;-77
2021/09/15 02:18:50;;;;;;;29.33;18.52;;;16.60;99.90;;;;;;5054913;28;20044;-77
2021/09/15 02:21:20;;;;;;;30.15;19.38;;;16.60;99.90;;;;;;5056357;28;20064;-77
2021/09/15 02:23:52;;;;;;;31.85;20.02;;;16.60;99.90;;;;;;5054682;28;20479;-77
2021/09/15 02:26:20;;;;;;;25.70;18.58;;;16.60;99.90;;;;;;5041707;28;20044;-77
2021/09/15 02:28:47;;;;;;;29.35;19.55;;;16.60;99.90;;;;;;5040811;28;20044;-77
2021/09/15 02:31:18;;;;;;;26.83;19.10;;;16.60;99.90;;;;;;5050257;28;20041;-76
2021/09/15 02:33:48;;;;;;;26.80;19.48;;;16.50;99.90;;;;;;5059717;28;20570;-76
2021/09/15 02:36:16;;;;;;;28.65;18.70;;;16.60;99.90;;;;;;5057838;28;20503;-77
2021/09/15 02:38:46;;;;;;;27.75;19.77;;;16.60;99.90;;;;;;5054724;28;20408;-77
2021/09/15 02:41:14;;;;;;;28.63;20.38;;;16.60;99.90;;;;;;5055187;28;20049;-77
2021/09/15 02:43:44;;;;;;;30.60;21.25;;;16.60;99.90;;;;;;5052787;28;20083;-77
2021/09/15 02:46:11;;;;;;;35.85;22.02;;;16.60;99.90;;;;;;5052199;28;20056;-77
2021/09/15 02:48:40;;;;;;;34.45;20.80;;;16.50;99.90;;;;;;5051738;28;20477;-77
2021/09/15 02:51:07;;;;;;;27.58;20.52;;;16.60;99.90;;;;;;5061526;28;20401;-77
2021/09/15 02:53:34;;;;;;;29.65;20.98;;;16.60;99.90;;;;;;5055111;28;20489;-76
2021/09/15 02:56:01;;;;;;;34.42;22.38;;;16.60;99.90;;;;;;5050703;28;20059;-76
2021/09/15 02:58:28;;;;;;;34.65;22.85;;;16.60;99.90;;;;;;5062425;28;20389;-77
2021/09/15 03:01:04;;;;;;;32.67;22.98;;;16.50;99.90;;;;;;5061399;28;20109;-77
2021/09/15 03:03:34;;;;;;;34.00;22.73;;;16.60;99.90;;;;;;5051093;28;20048;-77
2021/09/15 03:06:15;;;;;;;34.78;23.58;;;16.50;99.90;;;;;;5033804;28;20095;-77
2021/09/15 03:08:44;;;;;;;34.25;22.73;;;16.50;99.90;;;;;;5032241;28;20048;-77
2021/09/15 03:11:14;;;;;;;38.17;23.98;;;16.60;99.90;;;;;;5026058;28;20137;-77
2021/09/15 03:13:41;;;;;;;32.70;23.00;;;16.60;99.90;;;;;;5047094;28;20049;-77
2021/09/15 03:16:08;;;;;;;37.10;24.35;;;16.50;99.90;;;;;;5028703;28;20049;-77
2021/09/15 03:18:39;;;;;;;35.60;23.85;;;16.50;99.90;;;;;;5037667;28;20075;-77
2021/09/15 03:21:07;;;;;;;40.35;25.70;;;16.50;99.90;;;;;;5030916;28;20392;-77
2021/09/15 03:23:35;;;;;;;31.88;22.92;;;16.50;99.90;;;;;;5068524;28;20476;-77
2021/09/15 03:26:05;;;;;;;35.20;24.33;;;16.50;99.90;;;;;;5066097;28;20060;-77
2021/09/15 03:28:35;;;;;;;36.35;23.63;;;16.40;99.90;;;;;;5060161;28;20045;-77
2021/09/15 03:31:05;;;;;;;35.75;24.75;;;16.40;99.90;;;;;;5048004;28;20041;-77
2021/09/15 03:33:32;;;;;;;34.40;23.15;;;16.40;99.90;;;;;;5047248;28;20048;-77
2021/09/15 03:35:59;;;;;;;33.05;23.15;;;16.40;99.90;;;;;;5043620;28;20041;-77
2021/09/15 03:38:26;;;;;;;34.17;23.65;;;16.40;99.90;;;;;;5044578;28;20351;-76
2021/09/15 03:40:53;;;;;;;33.08;23.45;;;16.40;99.90;;;;;;5057611;28;20127;-77
2021/09/15 03:43:20;;;;;;;34.08;23.92;;;16.40;99.90;;;;;;5061053;28;20108;-76
2021/09/15 03:45:47;;;;;;;35.63;23.63;;;16.40;99.90;;;;;;5039649;28;20044;-76
2021/09/15 03:48:15;;;;;;;35.70;23.75;;;16.40;99.90;;;;;;5056607;28;20045;-77
2021/09/15 03:50:43;;;;;;;31.75;23.98;;;16.40;99.90;;;;;;5053929;28;20063;-77
2021/09/15 03:53:10;;;;;;;31.63;23.38;;;16.40;99.90;;;;;;5055110;28;20041;-76
2021/09/15 03:55:37;;;;;;;28.95;23.05;;;16.40;99.90;;;;;;5051737;28;20044;-77
2021/09/15 03:58:04;;;;;;;32.25;23.73;;;16.40;99.90;;;;;;5057841;28;20036;-77
2021/09/15 04:00:31;;;;;;;31.02;23.80;;;16.40;99.90;;;;;;5057662;28;20072;-76
2021/09/15 04:02:58;;;;;;;32.35;24.50;;;16.40;99.90;;;;;;5055230;28;20044;-76
2021/09/15 04:05:25;;;;;;;33.70;25.42;;;16.40;99.90;;;;;;5085774;28;20048;-77
2021/09/15 04:07:53;;;;;;;38.72;26.00;;;16.40;99.90;;;;;;5064366;28;20384;-77
2021/09/15 04:10:20;;;;;;;35.05;25.35;;;16.40;99.90;;;;;;5051220;28;20051;-77
2021/09/15 04:12:47;;;;;;;33.88;25.65;;;16.40;99.90;;;;;;5058102;28;20044;-77
2021/09/15 04:15:14;;;;;;;34.55;24.67;;;16.40;99.90;;;;;;5044484;28;20121;-77
2021/09/15 04:17:41;;;;;;;34.70;24.55;;;16.40;99.90;;;;;;5069265;28;20047;-77
2021/09/15 04:20:14;;;;;;;33.38;24.23;;;16.40;99.90;;;;;;5064773;28;20099;-77
2021/09/15 04:22:46;;;;;;;31.42;23.27;;;16.40;99.90;;;;;;5077213;28;20049;-77
2021/09/15 04:33:35;;;;;;;27.25;21.45;;;16.30;99.90;;;;;;4988461;28;20056;-76
2021/09/15 04:36:05;;;;;;;30.40;22.48;;;16.30;99.90;;;;;;4989428;28;20414;-76
2021/09/15 04:38:32;;;;;;;25.48;20.92;;;16.30;99.90;;;;;;4962229;28;20054;-76
2021/09/15 04:40:59;;;;;;;28.35;22.50;;;16.30;99.90;;;;;;4971915;28;20394;-76
2021/09/15 04:43:26;;;;;;;27.10;21.35;;;16.20;99.90;;;;;;4969060;28;20488;-75
2021/09/15 04:45:53;;;;;;;26.83;22.08;;;16.20;99.90;;;;;;4974774;28;20537;-76
2021/09/15 04:48:20;;;;;;;25.35;21.13;;;16.20;99.90;;;;;;4977160;28;20069;-76
2021/09/15 04:50:47;;;;;;;26.70;21.38;;;16.20;99.90;;;;;;4964178;28;20470;-76
2021/09/15 04:53:14;;;;;;;26.77;20.92;;;16.20;99.90;;;;;;4984586;28;20038;-76
2021/09/15 04:55:41;;;;;;;25.02;20.70;;;16.20;99.90;;;;;;4977578;28;20050;-76
2021/09/15 04:58:08;;;;;;;24.65;21.33;;;16.20;99.90;;;;;;4983504;28;20104;-76
2021/09/15 05:00:35;;;;;;;23.95;20.63;;;16.20;99.90;;;;;;4988909;28;20069;-75
2021/09/15 05:03:03;;;;;;;27.20;20.50;;;16.20;99.90;;;;;;4972859;28;20134;-75
2021/09/15 05:05:30;;;;;;;27.10;21.05;;;16.10;99.90;;;;;;5029456;28;20114;-75
2021/09/15 05:07:57;;;;;;;27.30;22.08;;;16.10;99.90;;;;;;5056685;28;20048;-75
2021/09/15 05:10:26;;;;;;;26.50;21.50;;;16.10;99.90;;;;;;5057103;28;20063;-76
2021/09/15 05:12:57;;;;;;;28.98;22.50;;;16.10;99.90;;;;;;5057497;28;20037;-76
2021/09/15 05:15:25;;;;;;;28.45;22.02;;;16.00;99.90;;;;;;5056249;28;20524;-76
2021/09/15 05:17:52;;;;;;;29.27;21.67;;;16.00;99.90;;;;;;5069110;28;20049;-76
2021/09/15 05:20:20;;;;;;;25.05;20.63;;;16.00;99.90;;;;;;5055609;28;20048;-76
2021/09/15 05:22:50;;;;;;;27.98;20.92;;;16.00;99.90;;;;;;5059977;28;20049;-77
2021/09/15 05:25:19;;;;;;;28.55;21.83;;;15.90;99.90;;;;;;5064978;28;20485;-77
2021/09/15 05:27:46;;;;;;;30.50;22.67;;;15.90;99.90;;;;;;5069063;28;20052;-76
2021/09/15 05:30:14;;;;;;;25.98;21.17;;;15.90;99.90;;;;;;5058865;28;20048;-76
2021/09/15 05:32:41;;;;;;;25.75;22.23;;;15.90;99.90;;;;;;5056668;28;20045;-76
2021/09/15 05:35:10;;;;;;;29.77;23.15;;;15.90;99.90;;;;;;5067919;28;20052;-76
2021/09/15 05:37:38;;;;;;;30.67;24.15;;;15.90;99.90;;;;;;5061810;28;20052;-76
2021/09/15 05:40:06;;;;;;;32.53;24.33;;;15.90;99.90;;;;;;5060550;28;20381;-76
2021/09/15 05:42:33;;;;;;;33.67;24.73;;;15.90;99.90;;;;;;5060736;28;20048;-76
2021/09/15 05:45:03;;;;;;;35.55;25.38;;;15.80;99.90;;;;;;5058425;28;20047;-76
2021/09/15 05:47:31;;;;;;;34.72;25.02;;;15.80;99.90;;;;;;5055232;28;20045;-77
2021/09/15 05:49:59;;;;;;;31.45;24.20;;;15.80;99.90;;;;;;5059558;28;20143;-76
2021/09/15 05:52:26;;;;;;;33.33;24.63;;;15.80;99.90;;;;;;5051643;28;20060;-76
2021/09/15 05:54:54;;;;;;;28.25;22.42;;;15.70;99.90;;;;;;5060335;28;20371;-76
2021/09/15 05:57:21;;;;;;;34.25;24.50;;;15.70;99.90;;;;;;5059704;28;20045;-76
2021/09/15 05:59:48;;;;;;;32.10;24.67;;;15.70;99.90;;;;;;5056644;28;20044;-76
2021/09/15 06:02:15;;;;;;;35.88;26.55;;;15.70;99.90;;;;;;5067544;28;20431;-76
2021/09/15 06:04:42;;;;;;;36.08;26.05;;;15.60;99.90;;;;;;5060783;28;20504;-76
2021/09/15 06:07:09;;;;;;;39.30;27.73;;;15.60;99.90;;;;;;5059990;28;20045;-76
2021/09/15 06:09:36;;;;;;;39.40;27.60;;;15.60;99.90;;;;;;5060147;28;20354;-74
2021/09/15 06:12:03;;;;;;;41.78;27.10;;;15.60;99.90;;;;;;5067400;28;20049;-75
2021/09/15 06:14:35;;;;;;;36.88;26.75;;;15.60;99.90;;;;;;5068052;28;20052;-76
2021/09/15 06:17:12;;;;;;;40.92;27.45;;;15.50;99.90;;;;;;5067621;28;20048;-77
2021/09/15 06:24:09;;;;;;;37.80;27.85;;;15.50;99.90;;;;;;4885976;28;20050;-78
2021/09/15 06:26:34;;;;;;;39.65;27.35;;;15.50;99.90;;;;;;4925601;28;20481;-76
2021/09/15 06:29:01;;;;;;;42.15;27.77;;;15.50;99.90;;;;;;4993866;28;20050;-75
2021/09/15 06:31:29;;;;;;;39.55;27.58;;;15.50;99.90;;;;;;4998867;28;20046;-76
2021/09/15 06:33:56;;;;;;;42.35;27.55;;;15.50;99.90;;;;;;4999279;28;20585;-75
2021/09/15 06:36:23;;;;;;;41.92;28.15;;;15.50;99.90;;;;;;4998121;28;20073;-76
2021/09/15 06:38:50;;;;;;;43.00;29.08;;;15.50;99.90;;;;;;4995215;28;20049;-76
2021/09/15 06:41:17;;;;;;;40.35;27.63;;;15.50;99.90;;;;;;4979053;28;20058;-76
2021/09/15 06:43:44;;;;;;;42.47;28.70;;;15.50;99.90;;;;;;4999762;28;20038;-76
2021/09/15 06:46:11;;;;;;;42.17;27.13;;;15.60;99.90;;;;;;4994289;28;20125;-76
2021/09/15 06:48:38;;;;;;;38.97;28.85;;;15.60;99.90;;;;;;4983235;28;20425;-76
2021/09/15 06:51:05;;;;;;;41.15;29.45;;;15.70;99.90;;;;;;4994796;28;20045;-76
2021/09/15 06:53:33;;;;;;;42.78;29.30;;;15.70;99.90;;;;;;4992322;28;20478;-76
2021/09/15 06:55:59;;;;;;;41.67;28.55;;;15.70;99.90;;;;;;4990927;28;20049;-76
2021/09/15 06:58:26;;;;;;;41.38;28.65;;;15.80;99.90;;;;;;5037024;28;20045;-76
2021/09/15 07:00:53;;;;;;;37.97;28.08;;;15.80;99.90;;;;;;5046223;28;20052;-76
2021/09/15 07:03:21;;;;;;;41.35;27.42;;;15.80;99.90;;;;;;5042928;28;20056;-76
2021/09/15 07:05:47;;;;;;;38.67;27.85;;;15.90;99.90;;;;;;5070945;28;20102;-76
2021/09/15 07:08:14;;;;;;;39.10;28.67;;;15.90;99.90;;;;;;5045732;28;20053;-76
2021/09/15 07:10:42;;;;;;;38.13;27.17;;;16.00;99.90;;;;;;5048039;28;20104;-76
2021/09/15 07:13:10;;;;;;;35.78;27.48;;;16.10;99.90;;;;;;5047098;28;20052;-77
2021/09/15 07:15:37;;;;;;;41.38;27.92;;;16.10;99.90;;;;;;5043941;28;20055;-76
2021/09/15 07:18:05;;;;;;;39.55;27.42;;;16.10;99.90;;;;;;5040632;28;20386;-76
2021/09/15 07:20:33;;;;;;;39.03;27.73;;;16.20;99.90;;;;;;5034084;28;20041;-76
2021/09/15 07:23:00;;;;;;;36.30;26.63;;;16.30;99.90;;;;;;5063051;28;20052;-76
2021/09/15 07:25:27;;;;;;;40.75;27.55;;;16.30;99.90;;;;;;5057765;28;20284;-76
2021/09/15 07:27:55;;;;;;;37.87;26.93;;;16.40;99.90;;;;;;5046372;28;20493;-76
2021/09/15 07:30:23;;;;;;;38.80;26.58;;;16.40;99.90;;;;;;5037686;28;20045;-76
2021/09/15 07:32:50;;;;;;;38.45;25.77;;;16.50;99.90;;;;;;5070703;28;20051;-77
2021/09/15 07:35:17;;;;;;;34.38;24.75;;;16.50;99.90;;;;;;5052418;28;20060;-76
2021/09/15 07:37:44;;;;;;;31.63;24.67;;;16.60;99.90;;;;;;5033557;28;20075;-76
2021/09/15 07:40:11;;;;;;;33.92;26.08;;;16.60;99.90;;;;;;5047772;28;20477;-76
2021/09/15 07:42:38;;;;;;;33.55;24.67;;;16.70;99.90;;;;;;5047260;28;20041;-77
2021/09/15 07:45:07;;;;;;;37.33;26.08;;;16.80;99.90;;;;;;5050052;28;20051;-76
2021/09/15 07:47:34;;;;;;;36.47;25.55;;;16.80;99.90;;;;;;5047124;28;20052;-76
2021/09/15 07:50:02;;;;;;;37.45;26.30;;;16.90;99.90;;;;;;5055678;28;20049;-76
2021/09/15 07:52:29;;;;;;;38.75;26.33;;;16.90;99.90;;;;;;5058086;28;20040;-76
2021/09/15 07:54:56;;;;;;;40.03;27.10;;;16.90;99.90;;;;;;5058295;28;20032;-76
2021/09/15 07:57:23;;;;;;;35.88;27.00;;;16.90;99.90;;;;;;5058596;28;20056;-76
2021/09/15 07:59:50;;;;;;;34.83;26.08;;;16.90;99.90;;;;;;5054479;28;20045;-76
2021/09/15 08:02:17;;;;;;;40.92;27.73;;;16.90;99.90;;;;;;5054491;28;20053;-76
2021/09/15 08:04:44;;;;;;;40.70;28.08;;;16.90;99.90;;;;;;5059125;28;20053;-76
2021/09/15 08:07:11;;;;;;;41.42;26.65;;;16.90;99.90;;;;;;5057834;28;20052;-76
2021/09/15 08:09:38;;;;;;;36.40;27.52;;;17.00;99.90;;;;;;5056841;28;20041;-76
2021/09/15 08:12:05;;;;;;;33.83;25.25;;;17.00;99.90;;;;;;5070832;28;20050;-76
2021/09/15 08:14:32;;;;;;;38.25;27.40;;;17.00;99.90;;;;;;5053896;28;20056;-75
2021/09/15 08:16:59;;;;;;;35.28;25.75;;;17.00;99.90;;;;;;5055101;28;20094;-76
2021/09/15 08:19:27;;;;;;;34.53;25.38;;;17.10;99.90;;;;;;5057751;28;20052;-76
2021/09/15 08:21:55;;;;;;;30.35;23.63;;;17.20;99.90;;;;;;5058335;28;20041;-76
2021/09/15 08:24:22;;;;;;;29.50;22.73;;;17.30;99.90;;;;;;5057890;28;20044;-76
2021/09/15 08:26:49;;;;;;;26.20;20.52;;;17.40;99.90;;;;;;5053737;28;20067;-76
2021/09/15 08:29:16;;;;;;;23.55;20.55;;;17.50;99.90;;;;;;5065788;28;20075;-76
2021/09/15 08:31:43;;;;;;;28.17;22.25;;;17.60;99.90;;;;;;5058527;28;20064;-76
2021/09/15 08:34:10;;;;;;;25.90;20.30;;;17.70;99.90;;;;;;5057663;28;20047;-73
2021/09/15 08:36:36;;;;;;;26.08;21.13;;;17.70;99.90;;;;;;5058523;28;20049;-76
2021/09/15 08:39:04;;;;;;;23.48;19.20;;;17.80;99.90;;;;;;5055749;28;20045;-75
2021/09/15 08:41:32;;;;;;;22.38;18.33;;;17.90;99.90;;;;;;5053314;28;20053;-76
2021/09/15 08:43:59;;;;;;;24.30;19.30;;;18.00;99.90;;;;;;5057005;28;20492;-76
2021/09/15 08:46:28;;;;;;;21.15;18.10;;;18.00;99.90;;;;;;5057361;28;20286;-74
2021/09/15 08:48:58;;;;;;;22.63;18.60;;;18.10;99.90;;;;;;5058553;28;20531;-74
2021/09/15 08:51:26;;;;;;;23.02;18.65;;;18.10;99.90;;;;;;5068502;28;20067;-74
2021/09/15 08:53:54;;;;;;;21.38;18.98;;;18.10;99.90;;;;;;5055338;28;20049;-73
2021/09/15 08:56:22;;;;;;;20.80;18.17;;;18.20;99.90;;;;;;5072939;28;20050;-74
2021/09/15 08:58:48;;;;;;;22.17;18.45;;;18.30;99.90;;;;;;5061606;28;20052;-74
2021/09/15 09:01:18;;;;;;;22.25;16.70;;;18.30;99.90;;;;;;5061032;28;20044;-76
2021/09/15 09:03:51;;;;;;;18.63;16.65;;;18.40;99.90;;;;;;5062120;28;20064;-76
2021/09/15 09:06:21;;;;;;;23.60;18.50;;;18.50;99.90;;;;;;5060650;28;20365;-76
2021/09/15 09:08:53;;;;;;;23.58;18.30;;;18.60;99.90;;;;;;5073322;28;20089;-76
2021/09/15 09:11:26;;;;;;;20.13;18.02;;;18.60;99.90;;;;;;5086209;28;20051;-76
2021/09/15 09:13:55;;;;;;;20.80;18.30;;;18.70;99.90;;;;;;5069787;28;20048;-76
2021/09/15 09:16:36;;;;;;;24.30;19.60;;;18.70;99.90;;;;;;5067462;28;20040;-76
2021/09/15 09:19:11;;;;;;;23.95;19.75;;;18.60;99.90;;;;;;5061789;28;20041;-74
2021/09/15 09:21:41;;;;;;;22.77;18.90;;;18.60;99.90;;;;;;5057384;28;20049;-75
2021/09/15 09:24:10;;;;;;;21.77;19.30;;;18.60;99.90;;;;;;5069972;28;20048;-74
2021/09/15 09:26:54;;;;;;;24.05;19.95;;;18.70;99.90;;;;;;5072977;28;20052;-75
2021/09/15 09:29:36;;;;;;;22.25;19.85;;;18.80;99.90;;;;;;5069161;28;20059;-74
2021/09/15 09:32:13;;;;;;;21.02;18.83;;;18.60;99.90;;;;;;5088581;28;20048;-74
2021/09/15 09:34:48;;;;;;;22.88;18.15;;;18.50;99.90;;;;;;5067727;28;20055;-75
2021/09/15 09:37:17;;;;;;;22.02;18.73;;;18.50;99.90;;;;;;5064847;28;20040;-74
2021/09/15 09:39:47;;;;;;;21.90;18.27;;;18.60;99.90;;;;;;5062710;28;20045;-74
2021/09/15 09:42:23;;;;;;;26.08;20.08;;;18.70;99.90;;;;;;5059455;28;20040;-75
2021/09/15 09:44:54;;;;;;;23.27;18.98;;;18.80;99.90;;;;;;5056530;28;20041;-75
2021/09/15 09:47:25;;;;;;;21.73;19.42;;;19.00;99.90;;;;;;5070137;28;20051;-74
2021/09/15 09:50:12;;;;;;;21.65;19.10;;;18.90;99.90;;;;;;5067643;28;20045;-74
2021/09/15 09:53:02;;;;;;;21.05;18.60;;;19.00;99.90;;;;;;5062623;28;20064;-74
2021/09/15 09:55:33;;;;;;;19.92;17.60;;;19.00;99.90;;;;;;5060473;28;20045;-74
2021/09/15 09:58:03;;;;;;;20.45;17.20;;;19.00;99.90;;;;;;5060641;28;20135;-74
2021/09/15 10:00:31;;;;;;;20.08;17.13;;;19.00;99.90;;;;;;5060129;28;20049;-75
2021/09/15 10:03:03;;;;;;;20.20;17.55;;;19.00;99.90;;;;;;5057389;28;20511;-74
2021/09/15 10:05:30;;;;;;;19.50;17.38;;;19.00;99.90;;;;;;5055781;28;20428;-74
2021/09/15 10:07:58;;;;;;;19.17;17.15;;;19.10;99.90;;;;;;5068194;28;20047;-74
2021/09/15 10:10:25;;;;;;;17.65;15.85;;;19.10;99.90;;;;;;5062673;28;20049;-75
2021/09/15 10:12:55;;;;;;;18.33;15.10;;;19.30;99.90;;;;;;5060552;28;20048;-74
2021/09/15 10:15:23;;;;;;;16.83;15.13;;;19.30;99.90;;;;;;5060164;28;20048;-75
2021/09/15 10:17:55;;;;;;;17.75;15.88;;;19.40;99.90;;;;;;5056493;28;20055;-74
2021/09/15 10:20:26;;;;;;;17.98;16.08;;;19.40;99.90;;;;;;5065021;28;20461;-74
2021/09/15 10:22:53;;;;;;;20.48;16.38;;;19.40;99.90;;;;;;5083640;28;20051;-74
2021/09/15 10:25:41;;;;;;;18.02;16.00;;;19.40;99.90;;;;;;5063011;28;20045;-74
2021/09/15 10:28:09;;;;;;;16.33;14.73;;;19.40;99.90;;;;;;5054374;28;20431;-74
2021/09/15 10:30:53;;;;;;;16.55;14.95;;;19.30;99.90;;;;;;5056637;28;20049;-74
2021/09/15 10:33:36;;;;;;;15.57;13.98;;;19.50;99.90;;;;;;5064784;28;20044;-74
2021/09/15 10:36:49;;;;;;;17.52;15.07;;;19.60;99.90;;;;;;5055762;28;20130;-75
2021/09/15 10:39:22;;;;;;;15.15;13.65;;;19.70;99.90;;;;;;5052023;28;20037;-75
2021/09/15 10:41:51;;;;;;;14.85;13.35;;;19.90;99.90;;;;;;5071265;28;20045;-75
2021/09/15 10:44:18;;;;;;;14.38;13.00;;;20.00;99.90;;;;;;5067536;28;20060;-75
2021/09/15 10:46:45;;;;;;;15.25;13.77;;;20.10;99.90;;;;;;5060306;28;20631;-75
2021/09/15 10:49:16;;;;;;;13.80;12.43;;;20.20;99.90;;;;;;5059278;28;20477;-75
2021/09/15 10:51:45;;;;;;;12.80;11.45;;;20.40;99.90;;;;;;5057380;28;20048;-75
2021/09/15 10:54:49;;;;;;;13.65;12.35;;;20.40;99.90;;;;;;5067911;28;20056;-75
2021/09/15 10:57:27;;;;;;;12.85;11.55;;;20.40;99.90;;;;;;5056962;28;20044;-75
2021/09/15 11:00:07;;;;;;;11.40;10.20;;;20.40;99.90;;;;;;5055199;28;20045;-75
2021/09/15 11:02:41;;;;;;;11.82;10.38;;;20.40;99.90;;;;;;5069221;28;20123;-75
2021/09/15 11:05:26;;;;;;;13.75;12.15;;;20.30;99.90;;;;;;5055794;28;20053;-75
2021/09/15 11:07:54;;;;;;;12.25;11.05;;;20.40;99.90;;;;;;5070439;28;20497;-75
2021/09/15 11:10:33;;;;;;;12.57;11.27;;;20.60;99.90;;;;;;5067680;28;20044;-75
2021/09/15 11:13:04;;;;;;;11.63;10.52;;;20.70;99.90;;;;;;5068167;28;20075;-75
2021/09/15 11:15:41;;;;;;;12.85;10.80;;;21.00;99.90;;;;;;5064360;28;20044;-75
2021/09/15 11:18:24;;;;;;;12.07;10.93;;;21.10;99.90;;;;;;5067230;28;20052;-75
2021/09/15 11:21:02;;;;;;;10.55;9.45;;;21.00;99.90;;;;;;5054638;28;20055;-75
2021/09/15 11:23:30;;;;;;;11.88;10.68;;;20.90;99.90;;;;;;5067754;28;20123;-75
2021/09/15 11:25:59;;;;;;;11.10;9.90;;;20.70;99.90;;;;;;5058206;28;20056;-75
2021/09/15 11:28:26;;;;;;;;;;;20.70;99.90;;;;;;5053443;28;20056;-75
2021/09/15 11:30:52;;;;;;;11.40;10.30;;;20.70;99.90;;;;;;5053614;28;19971;-75
2021/09/15 11:33:31;;;;;;;10.57;9.48;;;20.60;99.90;;;;;;5053083;28;20040;-75
2021/09/15 11:36:06;;;;;;;10.82;9.82;;;20.70;99.90;;;;;;5055786;28;20040;-74
2021/09/15 11:38:36;;;;;;;10.20;9.20;;;20.80;99.90;;;;;;5054255;28;20057;-75
2021/09/15 11:41:14;;;;;;;10.65;9.27;;;20.80;99.90;;;;;;5055721;28;20052;-75
2021/09/15 11:43:46;;;;;;;17.10;15.25;;;20.90;99.90;;;;;;5052763;28;20055;-75
2021/09/15 11:46:15;;;;;;;16.90;15.20;;;21.00;99.90;;;;;;5040424;28;20052;-75
2021/09/15 11:48:43;;;;;;;;;;;21.00;99.90;;;;;;5059340;28;20041;-75
2021/09/15 11:51:33;;;;;;;18.02;16.15;;;21.00;99.90;;;;;;5057024;28;19921;-75
2021/09/15 11:54:15;;;;;;;18.73;16.85;;;20.90;99.90;;;;;;5054855;28;20041;-75
2021/09/15 11:56:52;;;;;;;19.02;16.88;;;20.70;99.90;;;;;;5069132;28;20044;-75
2021/09/15 11:59:21;;;;;;;18.55;16.50;;;20.70;99.90;;;;;;5060734;28;20049;-75
2021/09/15 12:02:09;;;;;;;20.92;18.30;;;20.60;99.90;;;;;;5043468;28;20080;-75
2021/09/15 12:04:39;;;;;;;18.25;16.45;;;20.60;99.90;;;;;;5065703;28;20048;-75
2021/09/15 12:07:06;;;;;;;16.63;14.93;;;20.60;99.90;;;;;;5063097;28;20497;-75
2021/09/15 12:09:35;;;;;;;16.85;15.13;;;20.60;99.90;;;;;;5042514;28;20053;-75
2021/09/15 12:12:08;;;;;;;18.30;16.40;;;20.70;99.90;;;;;;5039479;28;20059;-75
2021/09/15 12:14:35;;;;;;;16.02;14.45;;;20.70;99.90;;;;;;5033665;28;20477;-75
2021/09/15 12:17:04;;;;;;;16.10;14.52;;;20.70;99.90;;;;;;5043457;28;20473;-75
2021/09/15 12:19:31;;;;;;;15.38;13.77;;;20.70;99.90;;;;;;5047634;28;20103;-75
2021/09/15 12:21:59;;;;;;;17.27;13.98;;;20.70;99.90;;;;;;5049727;28;20149;-75
2021/09/15 12:24:26;;;;;;;16.60;14.85;;;20.80;99.90;;;;;;5051104;28;20048;-76
2021/09/15 12:26:54;;;;;;;16.48;14.45;;;20.70;99.90;;;;;;5054415;28;20048;-76
2021/09/15 12:29:22;;;;;;;16.98;13.65;;;20.70;99.90;;;;;;5067295;28;20052;-76
2021/09/15 12:31:51;;;;;;;18.48;16.58;;;20.70;99.90;;;;;;5065772;28;20059;-75
2021/09/15 12:34:27;;;;;;;;;;;20.70;99.90;;;;;;5066018;28;20048;-76
2021/09/15 12:37:09;;;;;;;15.63;14.10;;;20.70;99.90;;;;;;5069149;28;19921;-75
2021/09/15 12:40:01;;;;;;;16.50;14.77;;;20.70;99.90;;;;;;5067862;28;20056;-75
2021/09/15 12:42:33;;;;;;;16.45;14.75;;;20.70;99.90;;;;;;5068916;28;20052;-75
2021/09/15 12:45:11;;;;;;;17.65;15.85;;;20.60;99.90;;;;;;5069282;28;20048;-76
2021/09/15 12:47:44;;;;;;;16.73;14.93;;;20.80;99.90;;;;;;5068571;28;20044;-75
2021/09/15 12:50:18;;;;;;;16.73;15.10;;;20.90;99.90;;;;;;5069674;28;20051;-75
2021/09/15 12:52:57;;;;;;;15.77;14.13;;;21.10;99.90;;;;;;5067332;28;20045;-75
2021/09/15 12:55:26;;;;;;;13.35;12.00;;;21.20;99.90;;;;;;5066911;28;20040;-74